sensor_id;sensor_type;location;lat;lon;timestamp;pressure;altitude;pressure_sealevel;temperature;humidity
12358;BME280;6243;51.244;6.774;2024-02-23T00:00:13;115150.97;;;-141.28;42.55
12358;BME280;6243;51.244;6.774;2024-02-23T00:02:39;115150.97;;;-141.28;42.88
12358;BME280;6243;51.244;6.774;2024-02-23T00:05:05;115150.97;;;-141.28;42.23
12358;BME280;6243;51.244;6.774;2024-02-23T00:07:30;115150.97;;;-141.28;42.16
12358;BME280;6243;51.244;6.774;2024-02-23T00:09:56;115150.97;;;-141.28;42.41
12358;BME280;6243;51.244;6.774;2024-02-23T00:12:21;115150.97;;;-141.28;42.43
12358;BME280;6243;51.244;6.774;2024-02-23T00:14:48;115150.97;;;-141.28;42.96
12358;BME280;6243;51.244;6.774;2024-02-23T00:17:14;115150.97;;;-141.28;41.68
12358;BME280;6243;51.244;6.774;2024-02-23T00:19:39;115150.97;;;-141.28;41.18
12358;BME280;6243;51.244;6.774;2024-02-23T00:22:05;115150.97;;;-141.28;41.75
12358;BME280;6243;51.244;6.774;2024-02-23T00:24:30;115150.97;;;-141.28;42.62
12358;BME280;6243;51.244;6.774;2024-02-23T00:26:55;115150.97;;;-141.28;42.34
12358;BME280;6243;51.244;6.774;2024-02-23T00:29:21;115150.97;;;-141.28;42.94
12358;BME280;6243;51.244;6.774;2024-02-23T00:31:48;115150.97;;;-141.28;42.42
12358;BME280;6243;51.244;6.774;2024-02-23T00:34:13;115150.97;;;-141.28;43.12
12358;BME280;6243;51.244;6.774;2024-02-23T00:36:39;115150.97;;;-141.28;42.11
12358;BME280;6243;51.244;6.774;2024-02-23T00:39:05;115150.97;;;-141.28;42.03
12358;BME280;6243;51.244;6.774;2024-02-23T00:41:31;115150.97;;;-141.28;42.33
12358;BME280;6243;51.244;6.774;2024-02-23T00:43:56;115150.97;;;-141.28;42.15
12358;BME280;6243;51.244;6.774;2024-02-23T00:46:22;115150.97;;;-141.28;41.65
12358;BME280;6243;51.244;6.774;2024-02-23T00:48:49;115150.97;;;-141.28;42.02
12358;BME280;6243;51.244;6.774;2024-02-23T00:51:14;115150.97;;;-141.28;41.59
12358;BME280;6243;51.244;6.774;2024-02-23T00:53:40;115150.97;;;-141.28;40.94
12358;BME280;6243;51.244;6.774;2024-02-23T00:56:06;115150.97;;;-141.28;41.04
12358;BME280;6243;51.244;6.774;2024-02-23T00:58:31;115150.97;;;-141.28;40.77
12358;BME280;6243;51.244;6.774;2024-02-23T01:00:57;115150.97;;;-141.28;40.76
12358;BME280;6243;51.244;6.774;2024-02-23T01:03:22;115150.97;;;-141.28;40.80
12358;BME280;6243;51.244;6.774;2024-02-23T01:05:49;115150.97;;;-141.28;40.44
12358;BME280;6243;51.244;6.774;2024-02-23T01:08:15;115150.97;;;-141.28;40.73
12358;BME280;6243;51.244;6.774;2024-02-23T01:10:40;115150.97;;;-141.28;40.67
12358;BME280;6243;51.244;6.774;2024-02-23T01:13:06;115150.97;;;-141.28;41.09
12358;BME280;6243;51.244;6.774;2024-02-23T01:15:31;115150.97;;;-141.28;40.68
12358;BME280;6243;51.244;6.774;2024-02-23T01:17:57;115150.97;;;-141.28;41.04
12358;BME280;6243;51.244;6.774;2024-02-23T01:20:22;115150.97;;;-141.28;41.20
12358;BME280;6243;51.244;6.774;2024-02-23T01:22:49;115150.97;;;-141.28;41.26
12358;BME280;6243;51.244;6.774;2024-02-23T01:25:15;115150.97;;;-141.28;41.67
12358;BME280;6243;51.244;6.774;2024-02-23T01:27:40;115150.97;;;-141.28;41.55
12358;BME280;6243;51.244;6.774;2024-02-23T01:30:07;115150.97;;;-141.28;41.17
12358;BME280;6243;51.244;6.774;2024-02-23T01:32:32;115150.97;;;-141.28;41.46
12358;BME280;6243;51.244;6.774;2024-02-23T01:34:58;115150.97;;;-141.28;42.61
12358;BME280;6243;51.244;6.774;2024-02-23T01:37:23;115150.97;;;-141.28;42.25
12358;BME280;6243;51.244;6.774;2024-02-23T01:39:50;115150.97;;;-141.28;42.08
12358;BME280;6243;51.244;6.774;2024-02-23T01:42:16;115150.97;;;-141.28;41.87
12358;BME280;6243;51.244;6.774;2024-02-23T01:44:41;115150.97;;;-141.28;42.53
12358;BME280;6243;51.244;6.774;2024-02-23T01:47:07;115150.97;;;-141.28;42.22
12358;BME280;6243;51.244;6.774;2024-02-23T01:49:32;115150.97;;;-141.28;42.41
12358;BME280;6243;51.244;6.774;2024-02-23T01:51:58;115150.97;;;-141.28;41.75
12358;BME280;6243;51.244;6.774;2024-02-23T01:54:25;115150.97;;;-141.28;42.42
12358;BME280;6243;51.244;6.774;2024-02-23T01:56:52;115150.97;;;-141.28;42.16
12358;BME280;6243;51.244;6.774;2024-02-23T01:59:18;115150.97;;;-141.28;42.24
12358;BME280;6243;51.244;6.774;2024-02-23T02:01:44;115150.97;;;-141.28;42.09
12358;BME280;6243;51.244;6.774;2024-02-23T02:04:09;115150.97;;;-141.28;42.49
12358;BME280;6243;51.244;6.774;2024-02-23T02:06:35;115150.97;;;-141.28;42.59
12358;BME280;6243;51.244;6.774;2024-02-23T02:09:01;115150.97;;;-141.28;42.37
12358;BME280;6243;51.244;6.774;2024-02-23T02:11:27;115150.97;;;-141.28;42.63
12358;BME280;6243;51.244;6.774;2024-02-23T02:13:53;115150.97;;;-141.28;42.41
12358;BME280;6243;51.244;6.774;2024-02-23T02:16:19;115150.97;;;-141.28;42.01
12358;BME280;6243;51.244;6.774;2024-02-23T02:18:44;115150.97;;;-141.28;41.07
12358;BME280;6243;51.244;6.774;2024-02-23T02:21:10;115150.97;;;-141.28;41.33
12358;BME280;6243;51.244;6.774;2024-02-23T02:23:35;115150.97;;;-141.28;41.49
12358;BME280;6243;51.244;6.774;2024-02-23T02:26:01;115150.97;;;-141.28;41.16
12358;BME280;6243;51.244;6.774;2024-02-23T02:28:26;115150.97;;;-141.28;41.71
12358;BME280;6243;51.244;6.774;2024-02-23T02:30:53;115150.97;;;-141.28;42.50
12358;BME280;6243;51.244;6.774;2024-02-23T02:33:19;115150.97;;;-141.28;41.77
12358;BME280;6243;51.244;6.774;2024-02-23T02:35:45;115150.97;;;-141.28;41.90
12358;BME280;6243;51.244;6.774;2024-02-23T02:38:11;115150.97;;;-141.28;42.51
12358;BME280;6243;51.244;6.774;2024-02-23T02:40:36;115150.97;;;-141.28;42.07
12358;BME280;6243;51.244;6.774;2024-02-23T02:43:02;115150.97;;;-141.28;41.76
12358;BME280;6243;51.244;6.774;2024-02-23T02:45:27;115150.97;;;-141.28;41.47
12358;BME280;6243;51.244;6.774;2024-02-23T02:47:54;115150.97;;;-141.28;41.58
12358;BME280;6243;51.244;6.774;2024-02-23T02:50:20;115150.97;;;-141.28;41.76
12358;BME280;6243;51.244;6.774;2024-02-23T02:52:45;115150.97;;;-141.28;41.57
12358;BME280;6243;51.244;6.774;2024-02-23T02:55:11;115150.97;;;-141.28;41.36
12358;BME280;6243;51.244;6.774;2024-02-23T02:57:36;115150.97;;;-141.28;41.36
12358;BME280;6243;51.244;6.774;2024-02-23T03:00:02;115150.97;;;-141.28;41.02
12358;BME280;6243;51.244;6.774;2024-02-23T03:02:27;115150.97;;;-141.28;40.87
12358;BME280;6243;51.244;6.774;2024-02-23T03:04:54;115150.97;;;-141.28;40.77
12358;BME280;6243;51.244;6.774;2024-02-23T03:07:20;115150.97;;;-141.28;40.31
12358;BME280;6243;51.244;6.774;2024-02-23T03:09:45;115150.97;;;-141.28;40.55
12358;BME280;6243;51.244;6.774;2024-02-23T03:12:11;115150.97;;;-141.28;40.05
12358;BME280;6243;51.244;6.774;2024-02-23T03:14:36;115150.97;;;-141.28;40.86
12358;BME280;6243;51.244;6.774;2024-02-23T03:17:02;115150.97;;;-141.28;41.36
12358;BME280;6243;51.244;6.774;2024-02-23T03:19:27;115150.97;;;-141.28;40.88
12358;BME280;6243;51.244;6.774;2024-02-23T03:21:54;115150.97;;;-141.28;40.62
12358;BME280;6243;51.244;6.774;2024-02-23T03:24:20;115150.97;;;-141.28;41.27
12358;BME280;6243;51.244;6.774;2024-02-23T03:26:45;115150.97;;;-141.28;40.66
12358;BME280;6243;51.244;6.774;2024-02-23T03:29:11;115150.97;;;-141.28;41.36
12358;BME280;6243;51.244;6.774;2024-02-23T03:31:37;115150.97;;;-141.28;41.09
12358;BME280;6243;51.244;6.774;2024-02-23T03:34:02;115150.97;;;-141.28;41.45
12358;BME280;6243;51.244;6.774;2024-02-23T03:36:28;115150.97;;;-141.28;41.41
12358;BME280;6243;51.244;6.774;2024-02-23T03:38:55;115150.97;;;-141.28;41.73
12358;BME280;6243;51.244;6.774;2024-02-23T03:41:20;115150.97;;;-141.28;42.56
12358;BME280;6243;51.244;6.774;2024-02-23T03:43:46;115150.97;;;-141.28;42.68
12358;BME280;6243;51.244;6.774;2024-02-23T03:46:11;115150.97;;;-141.28;42.37
12358;BME280;6243;51.244;6.774;2024-02-23T03:48:37;115150.97;;;-141.28;40.69
12358;BME280;6243;51.244;6.774;2024-02-23T03:51:03;115150.97;;;-141.28;41.88
12358;BME280;6243;51.244;6.774;2024-02-23T03:53:28;115150.97;;;-141.28;42.34
12358;BME280;6243;51.244;6.774;2024-02-23T03:55:56;115150.97;;;-141.28;42.46
12358;BME280;6243;51.244;6.774;2024-02-23T03:58:22;115150.97;;;-141.28;41.98
12358;BME280;6243;51.244;6.774;2024-02-23T04:00:47;115150.97;;;-141.28;42.42
12358;BME280;6243;51.244;6.774;2024-02-23T04:03:13;115150.97;;;-141.28;42.74
12358;BME280;6243;51.244;6.774;2024-02-23T04:05:38;115150.97;;;-141.28;41.96
12358;BME280;6243;51.244;6.774;2024-02-23T04:08:04;115150.97;;;-141.28;41.66
12358;BME280;6243;51.244;6.774;2024-02-23T04:10:30;115150.97;;;-141.28;41.63
12358;BME280;6243;51.244;6.774;2024-02-23T04:12:57;115150.97;;;-141.28;42.02
12358;BME280;6243;51.244;6.774;2024-02-23T04:15:23;115150.97;;;-141.28;41.82
12358;BME280;6243;51.244;6.774;2024-02-23T04:17:48;115150.97;;;-141.28;41.50
12358;BME280;6243;51.244;6.774;2024-02-23T04:20:14;115150.97;;;-141.28;41.91
12358;BME280;6243;51.244;6.774;2024-02-23T04:22:39;115150.97;;;-141.28;42.15
12358;BME280;6243;51.244;6.774;2024-02-23T04:25:05;115150.97;;;-141.28;42.29
12358;BME280;6243;51.244;6.774;2024-02-23T04:27:31;115150.97;;;-141.28;41.94
12358;BME280;6243;51.244;6.774;2024-02-23T04:29:58;115150.97;;;-141.28;41.57
12358;BME280;6243;51.244;6.774;2024-02-23T04:32:24;115150.97;;;-141.28;41.64
12358;BME280;6243;51.244;6.774;2024-02-23T04:34:49;115150.97;;;-141.28;41.90
12358;BME280;6243;51.244;6.774;2024-02-23T04:37:15;115150.97;;;-141.28;41.27
12358;BME280;6243;51.244;6.774;2024-02-23T04:39:43;115150.97;;;-141.28;41.94
12358;BME280;6243;51.244;6.774;2024-02-23T04:42:08;115150.97;;;-141.28;41.80
12358;BME280;6243;51.244;6.774;2024-02-23T04:44:34;115150.97;;;-141.28;41.57
12358;BME280;6243;51.244;6.774;2024-02-23T04:47:01;115150.97;;;-141.28;42.14
12358;BME280;6243;51.244;6.774;2024-02-23T04:49:26;115150.97;;;-141.28;41.83
12358;BME280;6243;51.244;6.774;2024-02-23T04:51:52;115150.97;;;-141.28;42.18
12358;BME280;6243;51.244;6.774;2024-02-23T04:54:18;115150.97;;;-141.28;42.15
12358;BME280;6243;51.244;6.774;2024-02-23T04:56:44;115150.97;;;-141.28;41.68
12358;BME280;6243;51.244;6.774;2024-02-23T04:59:09;115150.97;;;-141.28;42.34
12358;BME280;6243;51.244;6.774;2024-02-23T05:01:35;115150.97;;;-141.28;42.52
12358;BME280;6243;51.244;6.774;2024-02-23T05:04:02;115150.97;;;-141.28;42.18
12358;BME280;6243;51.244;6.774;2024-02-23T05:06:28;115150.97;;;-141.28;42.08
12358;BME280;6243;51.244;6.774;2024-02-23T05:08:54;115150.97;;;-141.28;41.72
12358;BME280;6243;51.244;6.774;2024-02-23T05:11:19;115150.97;;;-141.28;41.12
12358;BME280;6243;51.244;6.774;2024-02-23T05:13:44;115150.97;;;-141.28;40.99
12358;BME280;6243;51.244;6.774;2024-02-23T05:16:10;115150.97;;;-141.28;41.06
12358;BME280;6243;51.244;6.774;2024-02-23T05:18:35;115150.97;;;-141.28;41.05
12358;BME280;6243;51.244;6.774;2024-02-23T05:21:03;115150.97;;;-141.28;41.45
12358;BME280;6243;51.244;6.774;2024-02-23T05:23:28;115150.97;;;-141.28;40.87
12358;BME280;6243;51.244;6.774;2024-02-23T05:25:54;115150.97;;;-141.28;40.47
12358;BME280;6243;51.244;6.774;2024-02-23T05:28:19;115150.97;;;-141.28;41.04
12358;BME280;6243;51.244;6.774;2024-02-23T05:30:45;115150.97;;;-141.28;40.72
12358;BME280;6243;51.244;6.774;2024-02-23T05:33:10;115150.97;;;-141.28;40.61
12358;BME280;6243;51.244;6.774;2024-02-23T05:35:36;115150.97;;;-141.28;40.76
12358;BME280;6243;51.244;6.774;2024-02-23T05:38:03;115150.97;;;-141.28;40.38
12358;BME280;6243;51.244;6.774;2024-02-23T05:40:29;115150.97;;;-141.28;40.49
12358;BME280;6243;51.244;6.774;2024-02-23T05:42:54;115150.97;;;-141.28;40.37
12358;BME280;6243;51.244;6.774;2024-02-23T05:45:20;115150.97;;;-141.28;40.54
12358;BME280;6243;51.244;6.774;2024-02-23T05:47:45;115150.97;;;-141.28;40.09
12358;BME280;6243;51.244;6.774;2024-02-23T05:50:11;115150.97;;;-141.28;40.35
12358;BME280;6243;51.244;6.774;2024-02-23T05:52:36;115150.97;;;-141.28;40.68
12358;BME280;6243;51.244;6.774;2024-02-23T05:55:04;115150.97;;;-141.28;40.65
12358;BME280;6243;51.244;6.774;2024-02-23T05:57:29;115150.97;;;-141.28;40.56
12358;BME280;6243;51.244;6.774;2024-02-23T05:59:55;115150.97;;;-141.28;40.38
12358;BME280;6243;51.244;6.774;2024-02-23T06:02:21;115150.97;;;-141.28;40.51
12358;BME280;6243;51.244;6.774;2024-02-23T06:04:46;115150.97;;;-141.28;40.00
12358;BME280;6243;51.244;6.774;2024-02-23T06:07:12;115150.97;;;-141.28;39.94
12358;BME280;6243;51.244;6.774;2024-02-23T06:09:38;115150.97;;;-141.28;40.43
12358;BME280;6243;51.244;6.774;2024-02-23T06:12:06;115150.97;;;-141.28;40.54
12358;BME280;6243;51.244;6.774;2024-02-23T06:14:32;115150.97;;;-141.28;40.22
12358;BME280;6243;51.244;6.774;2024-02-23T06:16:57;115150.97;;;-141.28;40.49
12358;BME280;6243;51.244;6.774;2024-02-23T06:19:23;115150.97;;;-141.28;40.90
12358;BME280;6243;51.244;6.774;2024-02-23T06:21:49;115150.97;;;-141.28;40.27
12358;BME280;6243;51.244;6.774;2024-02-23T06:24:15;115150.97;;;-141.28;40.08
12358;BME280;6243;51.244;6.774;2024-02-23T06:26:40;115150.97;;;-141.28;40.06
12358;BME280;6243;51.244;6.774;2024-02-23T06:29:07;115150.97;;;-141.28;40.28
12358;BME280;6243;51.244;6.774;2024-02-23T06:31:33;115150.97;;;-141.28;40.36
12358;BME280;6243;51.244;6.774;2024-02-23T06:33:58;115150.97;;;-141.28;40.53
12358;BME280;6243;51.244;6.774;2024-02-23T06:36:24;115150.97;;;-141.28;40.42
12358;BME280;6243;51.244;6.774;2024-02-23T06:38:49;115150.97;;;-141.28;40.66
12358;BME280;6243;51.244;6.774;2024-02-23T06:41:15;115150.97;;;-141.28;40.54
12358;BME280;6243;51.244;6.774;2024-02-23T06:43:40;115150.97;;;-141.28;40.39
12358;BME280;6243;51.244;6.774;2024-02-23T06:46:07;115150.97;;;-141.28;40.76
12358;BME280;6243;51.244;6.774;2024-02-23T06:48:33;115150.97;;;-141.28;40.51
12358;BME280;6243;51.244;6.774;2024-02-23T06:50:59;115150.97;;;-141.28;40.77
12358;BME280;6243;51.244;6.774;2024-02-23T06:53:24;115150.97;;;-141.28;40.74
12358;BME280;6243;51.244;6.774;2024-02-23T06:55:50;115150.97;;;-141.28;40.98
12358;BME280;6243;51.244;6.774;2024-02-23T06:58:15;115150.97;;;-141.28;40.72
12358;BME280;6243;51.244;6.774;2024-02-23T07:00:41;115150.97;;;-141.28;40.50
12358;BME280;6243;51.244;6.774;2024-02-23T07:03:08;115150.97;;;-141.28;40.56
12358;BME280;6243;51.244;6.774;2024-02-23T07:05:33;115150.97;;;-141.28;40.53
12358;BME280;6243;51.244;6.774;2024-02-23T07:07:59;115150.97;;;-141.28;40.64
12358;BME280;6243;51.244;6.774;2024-02-23T07:10:24;115150.97;;;-141.28;40.61
12358;BME280;6243;51.244;6.774;2024-02-23T07:12:50;115150.97;;;-141.28;40.33
12358;BME280;6243;51.244;6.774;2024-02-23T07:15:15;115150.97;;;-141.28;40.50
12358;BME280;6243;51.244;6.774;2024-02-23T07:17:41;115150.97;;;-141.28;40.66
12358;BME280;6243;51.244;6.774;2024-02-23T07:20:09;115150.97;;;-141.28;40.84
12358;BME280;6243;51.244;6.774;2024-02-23T07:22:34;115150.97;;;-141.28;41.16
12358;BME280;6243;51.244;6.774;2024-02-23T07:25:00;115150.97;;;-141.28;40.50
12358;BME280;6243;51.244;6.774;2024-02-23T07:27:25;115150.97;;;-141.28;40.92
12358;BME280;6243;51.244;6.774;2024-02-23T07:29:51;115150.97;;;-141.28;40.72
12358;BME280;6243;51.244;6.774;2024-02-23T07:32:16;115150.97;;;-141.28;40.86
12358;BME280;6243;51.244;6.774;2024-02-23T07:34:42;115150.97;;;-141.28;41.16
12358;BME280;6243;51.244;6.774;2024-02-23T07:37:09;115150.97;;;-141.28;41.15
12358;BME280;6243;51.244;6.774;2024-02-23T07:39:34;115150.97;;;-141.28;40.63
12358;BME280;6243;51.244;6.774;2024-02-23T07:42:00;115150.97;;;-141.28;41.12
12358;BME280;6243;51.244;6.774;2024-02-23T07:44:25;115150.97;;;-141.28;40.53
12358;BME280;6243;51.244;6.774;2024-02-23T07:46:51;115150.97;;;-141.28;40.81
12358;BME280;6243;51.244;6.774;2024-02-23T07:49:17;115150.97;;;-141.28;40.69
12358;BME280;6243;51.244;6.774;2024-02-23T07:51:42;115150.97;;;-141.28;40.53
12358;BME280;6243;51.244;6.774;2024-02-23T07:54:09;115150.97;;;-141.28;40.78
12358;BME280;6243;51.244;6.774;2024-02-23T07:56:35;115150.97;;;-141.28;40.39
12358;BME280;6243;51.244;6.774;2024-02-23T07:59:00;115150.97;;;-141.28;40.84
12358;BME280;6243;51.244;6.774;2024-02-23T08:01:26;115150.97;;;-141.28;40.71
12358;BME280;6243;51.244;6.774;2024-02-23T08:03:51;115150.97;;;-141.28;40.23
12358;BME280;6243;51.244;6.774;2024-02-23T08:06:17;115150.97;;;-141.28;40.53
12358;BME280;6243;51.244;6.774;2024-02-23T08:08:42;115150.97;;;-141.28;40.56
12358;BME280;6243;51.244;6.774;2024-02-23T08:11:09;115150.97;;;-141.28;40.18
12358;BME280;6243;51.244;6.774;2024-02-23T08:13:35;115150.97;;;-141.28;40.31
12358;BME280;6243;51.244;6.774;2024-02-23T08:16:00;115150.97;;;-141.28;40.10
12358;BME280;6243;51.244;6.774;2024-02-23T08:18:26;115150.97;;;-141.28;40.13
12358;BME280;6243;51.244;6.774;2024-02-23T08:20:52;115150.97;;;-141.28;40.40
12358;BME280;6243;51.244;6.774;2024-02-23T08:23:17;115150.97;;;-141.28;40.18
12358;BME280;6243;51.244;6.774;2024-02-23T08:25:42;115150.97;;;-141.28;40.21
12358;BME280;6243;51.244;6.774;2024-02-23T08:28:09;115150.97;;;-141.28;40.51
12358;BME280;6243;51.244;6.774;2024-02-23T08:30:35;115150.97;;;-141.28;40.10
12358;BME280;6243;51.244;6.774;2024-02-23T08:33:00;115150.97;;;-141.28;40.71
12358;BME280;6243;51.244;6.774;2024-02-23T08:35:26;115150.97;;;-141.28;40.17
12358;BME280;6243;51.244;6.774;2024-02-23T08:37:51;115150.97;;;-141.28;40.04
12358;BME280;6243;51.244;6.774;2024-02-23T08:40:17;115150.97;;;-141.28;40.38
12358;BME280;6243;51.244;6.774;2024-02-23T08:42:46;115150.97;;;-141.28;40.05
12358;BME280;6243;51.244;6.774;2024-02-23T08:45:13;115150.97;;;-141.28;40.21
12358;BME280;6243;51.244;6.774;2024-02-23T08:47:39;115150.97;;;-141.28;39.66
12358;BME280;6243;51.244;6.774;2024-02-23T08:50:06;115150.97;;;-141.28;39.83
12358;BME280;6243;51.244;6.774;2024-02-23T08:52:31;115150.97;;;-141.28;39.37
12358;BME280;6243;51.244;6.774;2024-02-23T08:54:57;115150.97;;;-141.28;39.32
12358;BME280;6243;51.244;6.774;2024-02-23T08:57:22;115150.97;;;-141.28;39.29
12358;BME280;6243;51.244;6.774;2024-02-23T08:59:48;115150.97;;;-141.28;39.07
12358;BME280;6243;51.244;6.774;2024-02-23T09:02:15;115150.97;;;-141.28;39.04
12358;BME280;6243;51.244;6.774;2024-02-23T09:04:40;115150.97;;;-141.28;39.25
12358;BME280;6243;51.244;6.774;2024-02-23T09:07:06;115150.97;;;-141.28;39.63
12358;BME280;6243;51.244;6.774;2024-02-23T09:09:32;115150.97;;;-141.28;39.80
12358;BME280;6243;51.244;6.774;2024-02-23T09:11:57;115150.97;;;-141.28;39.52
12358;BME280;6243;51.244;6.774;2024-02-23T09:14:23;115150.97;;;-141.28;38.81
12358;BME280;6243;51.244;6.774;2024-02-23T09:16:48;115150.97;;;-141.28;38.60
12358;BME280;6243;51.244;6.774;2024-02-23T09:19:15;115150.97;;;-141.28;38.38
12358;BME280;6243;51.244;6.774;2024-02-23T09:21:42;115150.97;;;-141.28;38.78
12358;BME280;6243;51.244;6.774;2024-02-23T09:24:08;115150.97;;;-141.28;38.70
12358;BME280;6243;51.244;6.774;2024-02-23T09:26:33;115150.97;;;-141.28;39.04
12358;BME280;6243;51.244;6.774;2024-02-23T09:28:59;115150.97;;;-141.28;39.07
12358;BME280;6243;51.244;6.774;2024-02-23T09:31:24;115150.97;;;-141.28;38.71
12358;BME280;6243;51.244;6.774;2024-02-23T09:33:50;115150.97;;;-141.28;39.17
12358;BME280;6243;51.244;6.774;2024-02-23T09:36:17;115150.97;;;-141.28;38.56
12358;BME280;6243;51.244;6.774;2024-02-23T09:38:43;115150.97;;;-141.28;38.49
12358;BME280;6243;51.244;6.774;2024-02-23T09:41:14;115150.97;;;-141.28;38.79
12358;BME280;6243;51.244;6.774;2024-02-23T09:43:42;115150.97;;;-141.28;38.70
12358;BME280;6243;51.244;6.774;2024-02-23T09:46:09;115150.97;;;-141.28;38.03
12358;BME280;6243;51.244;6.774;2024-02-23T09:48:35;115150.97;;;-141.28;38.26
12358;BME280;6243;51.244;6.774;2024-02-23T09:51:05;115150.97;;;-141.28;38.25
12358;BME280;6243;51.244;6.774;2024-02-23T09:53:33;115150.97;;;-141.28;38.06
12358;BME280;6243;51.244;6.774;2024-02-23T09:56:00;115150.97;;;-141.28;38.15
12358;BME280;6243;51.244;6.774;2024-02-23T09:58:27;115150.97;;;-141.28;37.97
12358;BME280;6243;51.244;6.774;2024-02-23T10:00:53;115150.97;;;-141.28;38.69
12358;BME280;6243;51.244;6.774;2024-02-23T10:03:20;115150.97;;;-141.28;38.32
12358;BME280;6243;51.244;6.774;2024-02-23T10:05:45;115150.97;;;-141.28;38.39
12358;BME280;6243;51.244;6.774;2024-02-23T10:08:11;115150.97;;;-141.28;38.27
12358;BME280;6243;51.244;6.774;2024-02-23T10:10:38;115150.97;;;-141.28;38.04
12358;BME280;6243;51.244;6.774;2024-02-23T10:13:04;115150.97;;;-141.28;38.79
12358;BME280;6243;51.244;6.774;2024-02-23T10:15:29;115150.97;;;-141.28;38.96
12358;BME280;6243;51.244;6.774;2024-02-23T10:17:55;115150.97;;;-141.28;37.94
12358;BME280;6243;51.244;6.774;2024-02-23T10:20:20;115150.97;;;-141.28;37.80
12358;BME280;6243;51.244;6.774;2024-02-23T10:22:46;115150.97;;;-141.28;37.98
12358;BME280;6243;51.244;6.774;2024-02-23T10:25:12;115150.97;;;-141.28;37.82
12358;BME280;6243;51.244;6.774;2024-02-23T10:27:40;115150.97;;;-141.28;38.13
12358;BME280;6243;51.244;6.774;2024-02-23T10:30:06;115150.97;;;-141.28;37.75
12358;BME280;6243;51.244;6.774;2024-02-23T10:32:33;115150.97;;;-141.28;37.59
12358;BME280;6243;51.244;6.774;2024-02-23T10:35:00;115150.97;;;-141.28;37.62
12358;BME280;6243;51.244;6.774;2024-02-23T10:37:26;115150.97;;;-141.28;38.13
12358;BME280;6243;51.244;6.774;2024-02-23T10:39:57;115150.97;;;-141.28;37.77
12358;BME280;6243;51.244;6.774;2024-02-23T10:42:23;115150.97;;;-141.28;37.73
12358;BME280;6243;51.244;6.774;2024-02-23T10:44:51;115150.97;;;-141.28;37.19
12358;BME280;6243;51.244;6.774;2024-02-23T10:47:19;115150.97;;;-141.28;37.55
12358;BME280;6243;51.244;6.774;2024-02-23T10:49:46;115150.97;;;-141.28;37.66
12358;BME280;6243;51.244;6.774;2024-02-23T10:52:12;115150.97;;;-141.28;37.77
12358;BME280;6243;51.244;6.774;2024-02-23T10:54:38;115150.97;;;-141.28;37.63
12358;BME280;6243;51.244;6.774;2024-02-23T10:57:04;115150.97;;;-141.28;37.86
12358;BME280;6243;51.244;6.774;2024-02-23T10:59:30;115150.97;;;-141.28;37.90
12358;BME280;6243;51.244;6.774;2024-02-23T11:01:59;115150.97;;;-141.28;38.02
12358;BME280;6243;51.244;6.774;2024-02-23T11:04:26;115150.97;;;-141.28;37.08
12358;BME280;6243;51.244;6.774;2024-02-23T11:06:54;115150.97;;;-141.28;36.78
12358;BME280;6243;51.244;6.774;2024-02-23T11:09:21;115150.97;;;-141.28;37.11
12358;BME280;6243;51.244;6.774;2024-02-23T11:11:53;115150.97;;;-141.28;37.38
12358;BME280;6243;51.244;6.774;2024-02-23T11:14:29;115150.97;;;-141.28;37.52
12358;BME280;6243;51.244;6.774;2024-02-23T11:16:54;115150.97;;;-141.28;37.98
12358;BME280;6243;51.244;6.774;2024-02-23T11:19:32;115150.97;;;-141.28;37.82
12358;BME280;6243;51.244;6.774;2024-02-23T11:21:58;115150.97;;;-141.28;37.67
12358;BME280;6243;51.244;6.774;2024-02-23T11:24:25;115150.97;;;-141.28;37.79
12358;BME280;6243;51.244;6.774;2024-02-23T11:26:56;115150.97;;;-141.28;37.58
12358;BME280;6243;51.244;6.774;2024-02-23T11:29:22;115150.97;;;-141.28;37.72
12358;BME280;6243;51.244;6.774;2024-02-23T11:31:47;115150.97;;;-141.28;37.19
12358;BME280;6243;51.244;6.774;2024-02-23T11:34:13;115150.97;;;-141.28;37.35
12358;BME280;6243;51.244;6.774;2024-02-23T11:36:41;115150.97;;;-141.28;37.48
12358;BME280;6243;51.244;6.774;2024-02-23T11:39:10;115150.97;;;-141.28;37.74
12358;BME280;6243;51.244;6.774;2024-02-23T11:41:36;115150.97;;;-141.28;37.39
12358;BME280;6243;51.244;6.774;2024-02-23T11:44:02;115150.97;;;-141.28;37.20
12358;BME280;6243;51.244;6.774;2024-02-23T11:46:28;115150.97;;;-141.28;37.31
12358;BME280;6243;51.244;6.774;2024-02-23T11:48:54;115150.97;;;-141.28;37.59
12358;BME280;6243;51.244;6.774;2024-02-23T11:51:19;115150.97;;;-141.28;37.54
12358;BME280;6243;51.244;6.774;2024-02-23T11:53:47;115150.97;;;-141.28;37.64
12358;BME280;6243;51.244;6.774;2024-02-23T11:56:13;115150.97;;;-141.28;37.49
12358;BME280;6243;51.244;6.774;2024-02-23T11:58:39;115150.97;;;-141.28;37.22
12358;BME280;6243;51.244;6.774;2024-02-23T12:01:05;115150.97;;;-141.28;36.97
12358;BME280;6243;51.244;6.774;2024-02-23T12:03:31;115150.97;;;-141.28;37.74
12358;BME280;6243;51.244;6.774;2024-02-23T12:05:57;115150.97;;;-141.28;37.75
12358;BME280;6243;51.244;6.774;2024-02-23T12:08:22;115150.97;;;-141.28;37.29
12358;BME280;6243;51.244;6.774;2024-02-23T12:10:50;115150.97;;;-141.28;37.19
12358;BME280;6243;51.244;6.774;2024-02-23T12:13:15;115150.97;;;-141.28;37.26
12358;BME280;6243;51.244;6.774;2024-02-23T12:15:41;115150.97;;;-141.28;37.32
12358;BME280;6243;51.244;6.774;2024-02-23T12:18:07;115150.97;;;-141.28;37.19
12358;BME280;6243;51.244;6.774;2024-02-23T12:20:35;115150.97;;;-141.28;37.38
12358;BME280;6243;51.244;6.774;2024-02-23T12:23:01;115150.97;;;-141.28;37.54
12358;BME280;6243;51.244;6.774;2024-02-23T12:25:26;115150.97;;;-141.28;37.39
12358;BME280;6243;51.244;6.774;2024-02-23T12:27:56;115150.97;;;-141.28;37.52
12358;BME280;6243;51.244;6.774;2024-02-23T12:30:22;115150.97;;;-141.28;37.52
12358;BME280;6243;51.244;6.774;2024-02-23T12:32:48;115150.97;;;-141.28;37.64